Weather at Ishurdi Airport

Public forecast

Using degrees Celsius for public forecast. Weather courtesy of forecast.io.

Closest aviation weather report (METAR) to Ishurdi Airport

Closest report is Hazrat Shahjalal International Airport, 76.3 nm (141.2 km) ESE. Retrieved 2020/10/24 13:30 UTC (19 minutes ago):

VGHS 241330Z 19004KT 3500 HZ BKN010 OVC100 28/24 Q1007 NOSIG

Closest aviation forecast (TAF) to Ishurdi Airport

Closest forecast is Hazrat Shahjalal International Airport, 76.3 nm (141.2 km) ESE. Retrieved 2020/10/24 12:00 UTC (2 hours ago):

TAF VGHS 241100Z 2412/2518 22010KT 4000 HZ SCT012 BKN100 TEMPO 2412/2421 24020KT 2000 RA/TSRA BKN008 FEW025CB OVC090 BECMG 2421/2423 18006KT 3500 HZ SCT012 BKN100